sensor_id;sensor_type;location;lat;lon;timestamp;temperature;humidity
56044;DHT22;41912;51.022;3.664;2023-10-08T00:01:18;16.80;99.90
56044;DHT22;41912;51.022;3.664;2023-10-08T00:03:45;16.80;99.90
56044;DHT22;41912;51.022;3.664;2023-10-08T00:06:18;16.70;99.90
56044;DHT22;41912;51.022;3.664;2023-10-08T00:08:45;16.70;99.90
56044;DHT22;41912;51.022;3.664;2023-10-08T00:11:11;16.70;99.90
56044;DHT22;41912;51.022;3.664;2023-10-08T00:13:37;16.70;99.90
56044;DHT22;41912;51.022;3.664;2023-10-08T00:16:07;16.70;99.90
56044;DHT22;41912;51.022;3.664;2023-10-08T00:18:36;16.70;99.90
56044;DHT22;41912;51.022;3.664;2023-10-08T00:21:03;16.60;99.90
56044;DHT22;41912;51.022;3.664;2023-10-08T00:23:35;16.60;99.90
56044;DHT22;41912;51.022;3.664;2023-10-08T00:26:01;16.60;99.90
56044;DHT22;41912;51.022;3.664;2023-10-08T00:28:30;16.60;99.90
56044;DHT22;41912;51.022;3.664;2023-10-08T00:30:57;16.50;99.90
56044;DHT22;41912;51.022;3.664;2023-10-08T00:33:23;16.50;99.90
56044;DHT22;41912;51.022;3.664;2023-10-08T00:35:49;16.50;99.90
56044;DHT22;41912;51.022;3.664;2023-10-08T00:38:15;16.50;99.90
56044;DHT22;41912;51.022;3.664;2023-10-08T00:40:42;16.50;99.90
56044;DHT22;41912;51.022;3.664;2023-10-08T00:43:29;16.40;99.90
56044;DHT22;41912;51.022;3.664;2023-10-08T00:45:57;16.40;99.90
56044;DHT22;41912;51.022;3.664;2023-10-08T00:48:25;16.30;99.90
56044;DHT22;41912;51.022;3.664;2023-10-08T00:50:57;16.30;99.90
56044;DHT22;41912;51.022;3.664;2023-10-08T00:53:41;16.20;99.90
56044;DHT22;41912;51.022;3.664;2023-10-08T00:56:09;16.20;99.90
56044;DHT22;41912;51.022;3.664;2023-10-08T00:58:41;16.20;99.90
56044;DHT22;41912;51.022;3.664;2023-10-08T01:01:06;16.10;99.90
56044;DHT22;41912;51.022;3.664;2023-10-08T01:03:37;16.10;99.90
56044;DHT22;41912;51.022;3.664;2023-10-08T01:06:09;16.10;99.90
56044;DHT22;41912;51.022;3.664;2023-10-08T01:08:36;16.10;99.90
56044;DHT22;41912;51.022;3.664;2023-10-08T01:11:22;16.10;99.90
56044;DHT22;41912;51.022;3.664;2023-10-08T01:14:04;16.10;99.90
56044;DHT22;41912;51.022;3.664;2023-10-08T01:16:33;16.00;99.90
56044;DHT22;41912;51.022;3.664;2023-10-08T01:19:00;16.00;99.90
56044;DHT22;41912;51.022;3.664;2023-10-08T01:21:29;15.90;99.90
56044;DHT22;41912;51.022;3.664;2023-10-08T01:24:03;15.90;99.90
56044;DHT22;41912;51.022;3.664;2023-10-08T01:26:35;15.90;99.90
56044;DHT22;41912;51.022;3.664;2023-10-08T01:29:08;15.90;99.90
56044;DHT22;41912;51.022;3.664;2023-10-08T01:31:34;15.90;99.90
56044;DHT22;41912;51.022;3.664;2023-10-08T01:34:02;15.90;99.90
56044;DHT22;41912;51.022;3.664;2023-10-08T01:36:30;15.90;99.90
56044;DHT22;41912;51.022;3.664;2023-10-08T01:38:56;15.90;99.90
56044;DHT22;41912;51.022;3.664;2023-10-08T01:41:23;15.90;99.90
56044;DHT22;41912;51.022;3.664;2023-10-08T01:43:56;15.90;99.90
56044;DHT22;41912;51.022;3.664;2023-10-08T01:46:25;15.80;99.90
56044;DHT22;41912;51.022;3.664;2023-10-08T01:48:50;15.80;99.90
56044;DHT22;41912;51.022;3.664;2023-10-08T01:51:19;15.70;99.90
56044;DHT22;41912;51.022;3.664;2023-10-08T01:53:54;15.70;99.90
56044;DHT22;41912;51.022;3.664;2023-10-08T01:56:23;15.70;99.90
56044;DHT22;41912;51.022;3.664;2023-10-08T01:58:50;15.70;99.90
56044;DHT22;41912;51.022;3.664;2023-10-08T02:01:22;15.70;99.90
56044;DHT22;41912;51.022;3.664;2023-10-08T02:03:48;15.60;99.90
56044;DHT22;41912;51.022;3.664;2023-10-08T02:06:14;15.70;99.90
56044;DHT22;41912;51.022;3.664;2023-10-08T02:08:39;15.70;99.90
56044;DHT22;41912;51.022;3.664;2023-10-08T02:11:05;15.70;99.90
56044;DHT22;41912;51.022;3.664;2023-10-08T02:13:31;15.70;99.90
56044;DHT22;41912;51.022;3.664;2023-10-08T02:15:56;15.60;99.90
56044;DHT22;41912;51.022;3.664;2023-10-08T02:18:23;15.60;99.90
56044;DHT22;41912;51.022;3.664;2023-10-08T02:20:51;15.60;99.90
56044;DHT22;41912;51.022;3.664;2023-10-08T02:23:17;15.50;99.90
56044;DHT22;41912;51.022;3.664;2023-10-08T02:25:43;15.50;99.90
56044;DHT22;41912;51.022;3.664;2023-10-08T02:28:10;15.50;99.90
56044;DHT22;41912;51.022;3.664;2023-10-08T02:30:38;15.50;99.90
56044;DHT22;41912;51.022;3.664;2023-10-08T02:33:05;15.50;99.90
56044;DHT22;41912;51.022;3.664;2023-10-08T02:35:40;15.50;99.90
56044;DHT22;41912;51.022;3.664;2023-10-08T02:38:08;15.50;99.90
56044;DHT22;41912;51.022;3.664;2023-10-08T02:40:36;15.50;99.90
56044;DHT22;41912;51.022;3.664;2023-10-08T02:43:03;15.50;99.90
56044;DHT22;41912;51.022;3.664;2023-10-08T02:45:31;15.50;99.90
56044;DHT22;41912;51.022;3.664;2023-10-08T02:47:57;15.50;99.90
56044;DHT22;41912;51.022;3.664;2023-10-08T02:50:23;15.50;99.90
56044;DHT22;41912;51.022;3.664;2023-10-08T02:52:49;15.50;99.90
56044;DHT22;41912;51.022;3.664;2023-10-08T02:55:18;15.50;99.90
56044;DHT22;41912;51.022;3.664;2023-10-08T02:57:53;15.50;99.90
56044;DHT22;41912;51.022;3.664;2023-10-08T03:00:18;15.50;99.90
56044;DHT22;41912;51.022;3.664;2023-10-08T03:02:46;15.50;99.90
56044;DHT22;41912;51.022;3.664;2023-10-08T03:05:12;15.50;99.90
56044;DHT22;41912;51.022;3.664;2023-10-08T03:07:39;15.50;99.90
56044;DHT22;41912;51.022;3.664;2023-10-08T03:10:05;15.50;99.90
56044;DHT22;41912;51.022;3.664;2023-10-08T03:12:34;15.50;99.90
56044;DHT22;41912;51.022;3.664;2023-10-08T03:15:01;15.40;99.90
56044;DHT22;41912;51.022;3.664;2023-10-08T03:17:43;15.40;99.90
56044;DHT22;41912;51.022;3.664;2023-10-08T03:20:18;15.40;99.90
56044;DHT22;41912;51.022;3.664;2023-10-08T03:23:02;15.40;99.90
56044;DHT22;41912;51.022;3.664;2023-10-08T03:25:31;15.40;99.90
56044;DHT22;41912;51.022;3.664;2023-10-08T03:27:59;15.40;99.90
56044;DHT22;41912;51.022;3.664;2023-10-08T03:30:24;15.40;99.90
56044;DHT22;41912;51.022;3.664;2023-10-08T03:32:52;15.40;99.90
56044;DHT22;41912;51.022;3.664;2023-10-08T03:35:21;15.40;99.90
56044;DHT22;41912;51.022;3.664;2023-10-08T03:37:53;15.40;99.90
56044;DHT22;41912;51.022;3.664;2023-10-08T03:40:20;15.40;99.90
56044;DHT22;41912;51.022;3.664;2023-10-08T03:42:48;15.40;99.90
56044;DHT22;41912;51.022;3.664;2023-10-08T03:45:15;15.30;99.90
56044;DHT22;41912;51.022;3.664;2023-10-08T03:47:48;15.30;99.90
56044;DHT22;41912;51.022;3.664;2023-10-08T03:50:28;15.30;99.90
56044;DHT22;41912;51.022;3.664;2023-10-08T03:52:58;15.30;99.90
56044;DHT22;41912;51.022;3.664;2023-10-08T03:55:23;15.20;99.90
56044;DHT22;41912;51.022;3.664;2023-10-08T03:57:52;15.20;99.90
56044;DHT22;41912;51.022;3.664;2023-10-08T04:00:24;15.20;99.90
56044;DHT22;41912;51.022;3.664;2023-10-08T04:02:58;15.00;99.90
56044;DHT22;41912;51.022;3.664;2023-10-08T04:05:30;15.20;99.90
56044;DHT22;41912;51.022;3.664;2023-10-08T04:08:10;15.20;99.90
56044;DHT22;41912;51.022;3.664;2023-10-08T04:11:05;15.20;99.90
56044;DHT22;41912;51.022;3.664;2023-10-08T04:13:34;15.20;99.90
56044;DHT22;41912;51.022;3.664;2023-10-08T04:16:04;15.20;99.90
56044;DHT22;41912;51.022;3.664;2023-10-08T04:18:30;15.10;99.90
56044;DHT22;41912;51.022;3.664;2023-10-08T04:20:55;15.10;99.90
56044;DHT22;41912;51.022;3.664;2023-10-08T04:23:26;15.10;99.90
56044;DHT22;41912;51.022;3.664;2023-10-08T04:25:51;15.10;99.90
56044;DHT22;41912;51.022;3.664;2023-10-08T04:28:21;15.10;99.90
56044;DHT22;41912;51.022;3.664;2023-10-08T04:30:47;15.10;99.90
56044;DHT22;41912;51.022;3.664;2023-10-08T04:33:14;15.10;99.90
56044;DHT22;41912;51.022;3.664;2023-10-08T04:35:43;15.10;99.90
56044;DHT22;41912;51.022;3.664;2023-10-08T04:38:23;15.10;99.90
56044;DHT22;41912;51.022;3.664;2023-10-08T04:40:51;15.10;99.90
56044;DHT22;41912;51.022;3.664;2023-10-08T04:43:19;15.00;99.90
56044;DHT22;41912;51.022;3.664;2023-10-08T04:46:01;15.00;99.90
56044;DHT22;41912;51.022;3.664;2023-10-08T04:48:34;15.00;99.90
56044;DHT22;41912;51.022;3.664;2023-10-08T04:51:02;15.00;99.90
56044;DHT22;41912;51.022;3.664;2023-10-08T04:56:03;15.00;99.90
56044;DHT22;41912;51.022;3.664;2023-10-08T04:58:41;15.00;99.90
56044;DHT22;41912;51.022;3.664;2023-10-08T05:01:10;15.10;99.90
56044;DHT22;41912;51.022;3.664;2023-10-08T05:03:55;15.00;99.90
56044;DHT22;41912;51.022;3.664;2023-10-08T05:06:34;15.00;99.90
56044;DHT22;41912;51.022;3.664;2023-10-08T05:09:07;15.00;99.90
56044;DHT22;41912;51.022;3.664;2023-10-08T05:11:39;15.00;99.90
56044;DHT22;41912;51.022;3.664;2023-10-08T05:14:11;15.00;99.90
56044;DHT22;41912;51.022;3.664;2023-10-08T05:16:55;15.00;99.90
56044;DHT22;41912;51.022;3.664;2023-10-08T05:19:31;15.00;99.90
56044;DHT22;41912;51.022;3.664;2023-10-08T05:22:15;15.10;99.90
56044;DHT22;41912;51.022;3.664;2023-10-08T05:25:04;15.00;99.90
56044;DHT22;41912;51.022;3.664;2023-10-08T05:27:40;15.00;99.90
56044;DHT22;41912;51.022;3.664;2023-10-08T05:30:16;15.00;99.90
56044;DHT22;41912;51.022;3.664;2023-10-08T05:32:46;15.00;99.90
56044;DHT22;41912;51.022;3.664;2023-10-08T05:35:35;15.00;99.90
56044;DHT22;41912;51.022;3.664;2023-10-08T05:38:12;15.00;99.90
56044;DHT22;41912;51.022;3.664;2023-10-08T05:40:57;15.00;99.90
56044;DHT22;41912;51.022;3.664;2023-10-08T05:43:35;15.00;99.90
56044;DHT22;41912;51.022;3.664;2023-10-08T05:46:01;15.00;99.90
56044;DHT22;41912;51.022;3.664;2023-10-08T05:48:45;15.00;99.90
56044;DHT22;41912;51.022;3.664;2023-10-08T05:51:16;15.00;99.90
56044;DHT22;41912;51.022;3.664;2023-10-08T05:53:59;15.00;99.90
56044;DHT22;41912;51.022;3.664;2023-10-08T05:56:28;15.00;99.90
56044;DHT22;41912;51.022;3.664;2023-10-08T05:58:54;15.00;99.90
56044;DHT22;41912;51.022;3.664;2023-10-08T06:01:40;15.10;99.90
56044;DHT22;41912;51.022;3.664;2023-10-08T06:04:07;15.10;99.90
56044;DHT22;41912;51.022;3.664;2023-10-08T06:06:51;15.00;99.90
56044;DHT22;41912;51.022;3.664;2023-10-08T06:09:36;15.00;99.90
56044;DHT22;41912;51.022;3.664;2023-10-08T06:12:03;15.10;99.90
56044;DHT22;41912;51.022;3.664;2023-10-08T06:14:36;15.10;99.90
56044;DHT22;41912;51.022;3.664;2023-10-08T06:17:20;15.10;99.90
56044;DHT22;41912;51.022;3.664;2023-10-08T06:20:00;15.10;99.90
56044;DHT22;41912;51.022;3.664;2023-10-08T06:22:27;15.10;99.90
56044;DHT22;41912;51.022;3.664;2023-10-08T06:24:53;15.10;99.90
56044;DHT22;41912;51.022;3.664;2023-10-08T06:27:38;15.10;99.90
56044;DHT22;41912;51.022;3.664;2023-10-08T06:30:05;15.20;99.90
56044;DHT22;41912;51.022;3.664;2023-10-08T06:32:31;15.20;99.90
56044;DHT22;41912;51.022;3.664;2023-10-08T06:34:57;15.20;99.90
56044;DHT22;41912;51.022;3.664;2023-10-08T06:37:22;15.20;99.90
56044;DHT22;41912;51.022;3.664;2023-10-08T06:39:48;15.20;99.90
56044;DHT22;41912;51.022;3.664;2023-10-08T06:42:14;15.20;99.90
56044;DHT22;41912;51.022;3.664;2023-10-08T06:44:40;15.30;99.90
56044;DHT22;41912;51.022;3.664;2023-10-08T06:47:09;15.30;99.90
56044;DHT22;41912;51.022;3.664;2023-10-08T06:49:35;15.30;99.90
56044;DHT22;41912;51.022;3.664;2023-10-08T06:52:01;15.30;99.90
56044;DHT22;41912;51.022;3.664;2023-10-08T06:54:27;15.30;99.90
56044;DHT22;41912;51.022;3.664;2023-10-08T06:56:56;15.30;99.90
56044;DHT22;41912;51.022;3.664;2023-10-08T06:59:22;15.30;99.90
56044;DHT22;41912;51.022;3.664;2023-10-08T07:01:51;15.40;99.90
56044;DHT22;41912;51.022;3.664;2023-10-08T07:04:17;15.40;99.90
56044;DHT22;41912;51.022;3.664;2023-10-08T07:06:45;15.40;99.90
56044;DHT22;41912;51.022;3.664;2023-10-08T07:09:16;15.40;99.90
56044;DHT22;41912;51.022;3.664;2023-10-08T07:11:50;15.50;99.90
56044;DHT22;41912;51.022;3.664;2023-10-08T07:14:23;15.50;99.90
56044;DHT22;41912;51.022;3.664;2023-10-08T07:16:55;15.60;99.90
56044;DHT22;41912;51.022;3.664;2023-10-08T07:19:27;15.60;99.90
56044;DHT22;41912;51.022;3.664;2023-10-08T07:22:02;15.60;99.90
56044;DHT22;41912;51.022;3.664;2023-10-08T07:24:43;15.70;99.90
56044;DHT22;41912;51.022;3.664;2023-10-08T07:27:11;15.70;99.90
56044;DHT22;41912;51.022;3.664;2023-10-08T07:29:37;15.70;99.90
56044;DHT22;41912;51.022;3.664;2023-10-08T07:32:03;15.70;99.90
56044;DHT22;41912;51.022;3.664;2023-10-08T07:34:36;15.70;99.90
56044;DHT22;41912;51.022;3.664;2023-10-08T07:37:02;15.80;99.90
56044;DHT22;41912;51.022;3.664;2023-10-08T07:39:28;15.80;99.90
56044;DHT22;41912;51.022;3.664;2023-10-08T07:41:56;15.80;99.90
56044;DHT22;41912;51.022;3.664;2023-10-08T07:44:25;15.90;99.90
56044;DHT22;41912;51.022;3.664;2023-10-08T07:46:52;15.90;99.90
56044;DHT22;41912;51.022;3.664;2023-10-08T07:49:20;15.90;99.90
56044;DHT22;41912;51.022;3.664;2023-10-08T07:51:46;16.00;99.90
56044;DHT22;41912;51.022;3.664;2023-10-08T07:54:22;16.00;99.90
56044;DHT22;41912;51.022;3.664;2023-10-08T07:56:53;16.00;99.90
56044;DHT22;41912;51.022;3.664;2023-10-08T07:59:39;16.10;99.90
56044;DHT22;41912;51.022;3.664;2023-10-08T08:02:08;16.10;99.90
56044;DHT22;41912;51.022;3.664;2023-10-08T08:04:43;16.10;99.90
56044;DHT22;41912;51.022;3.664;2023-10-08T08:07:11;16.20;99.90
56044;DHT22;41912;51.022;3.664;2023-10-08T08:09:43;16.20;99.90
56044;DHT22;41912;51.022;3.664;2023-10-08T08:12:16;16.50;99.90
56044;DHT22;41912;51.022;3.664;2023-10-08T08:14:42;16.30;99.90
56044;DHT22;41912;51.022;3.664;2023-10-08T08:17:08;16.40;99.90
56044;DHT22;41912;51.022;3.664;2023-10-08T08:19:41;16.40;99.90
56044;DHT22;41912;51.022;3.664;2023-10-08T08:22:07;16.50;99.90
56044;DHT22;41912;51.022;3.664;2023-10-08T08:24:33;16.60;99.90
56044;DHT22;41912;51.022;3.664;2023-10-08T08:27:01;16.60;99.90
56044;DHT22;41912;51.022;3.664;2023-10-08T08:29:34;16.70;99.90
56044;DHT22;41912;51.022;3.664;2023-10-08T08:32:10;16.80;99.90
56044;DHT22;41912;51.022;3.664;2023-10-08T08:34:38;16.80;99.90
56044;DHT22;41912;51.022;3.664;2023-10-08T08:37:11;16.90;99.90
56044;DHT22;41912;51.022;3.664;2023-10-08T08:39:38;16.90;99.90
56044;DHT22;41912;51.022;3.664;2023-10-08T08:42:04;17.00;99.90
56044;DHT22;41912;51.022;3.664;2023-10-08T08:44:37;17.10;99.90
56044;DHT22;41912;51.022;3.664;2023-10-08T08:47:11;17.10;99.90
56044;DHT22;41912;51.022;3.664;2023-10-08T08:49:41;17.20;99.90
56044;DHT22;41912;51.022;3.664;2023-10-08T08:52:08;17.20;99.90
56044;DHT22;41912;51.022;3.664;2023-10-08T08:54:34;17.30;99.90
56044;DHT22;41912;51.022;3.664;2023-10-08T08:57:03;17.40;99.90
56044;DHT22;41912;51.022;3.664;2023-10-08T08:59:52;17.40;99.90
56044;DHT22;41912;51.022;3.664;2023-10-08T09:02:18;17.50;99.90
56044;DHT22;41912;51.022;3.664;2023-10-08T09:04:44;17.50;99.90
56044;DHT22;41912;51.022;3.664;2023-10-08T09:07:12;17.60;99.90
56044;DHT22;41912;51.022;3.664;2023-10-08T09:09:37;17.60;99.90
56044;DHT22;41912;51.022;3.664;2023-10-08T09:12:05;17.60;99.90
56044;DHT22;41912;51.022;3.664;2023-10-08T09:14:31;17.70;99.90
56044;DHT22;41912;51.022;3.664;2023-10-08T09:17:00;17.70;99.90
56044;DHT22;41912;51.022;3.664;2023-10-08T09:19:26;17.70;99.90
56044;DHT22;41912;51.022;3.664;2023-10-08T09:22:05;17.80;99.90
56044;DHT22;41912;51.022;3.664;2023-10-08T09:24:36;17.90;99.90
56044;DHT22;41912;51.022;3.664;2023-10-08T09:27:10;18.00;99.90
56044;DHT22;41912;51.022;3.664;2023-10-08T09:29:40;18.00;99.90
56044;DHT22;41912;51.022;3.664;2023-10-08T09:32:08;18.10;99.90
56044;DHT22;41912;51.022;3.664;2023-10-08T09:34:33;18.10;99.90
56044;DHT22;41912;51.022;3.664;2023-10-08T09:37:00;18.20;99.90
56044;DHT22;41912;51.022;3.664;2023-10-08T09:39:27;18.20;99.90
56044;DHT22;41912;51.022;3.664;2023-10-08T09:41:57;18.40;99.90
56044;DHT22;41912;51.022;3.664;2023-10-08T09:44:24;18.40;99.90
56044;DHT22;41912;51.022;3.664;2023-10-08T09:47:05;18.40;99.90
56044;DHT22;41912;51.022;3.664;2023-10-08T09:49:39;18.40;99.90
56044;DHT22;41912;51.022;3.664;2023-10-08T09:52:08;18.60;99.90
56044;DHT22;41912;51.022;3.664;2023-10-08T09:54:48;18.70;99.90
56044;DHT22;41912;51.022;3.664;2023-10-08T09:57:15;18.70;99.90
56044;DHT22;41912;51.022;3.664;2023-10-08T09:59:45;18.80;99.90
56044;DHT22;41912;51.022;3.664;2023-10-08T10:02:12;18.90;99.90
56044;DHT22;41912;51.022;3.664;2023-10-08T10:04:44;19.00;99.90
56044;DHT22;41912;51.022;3.664;2023-10-08T10:07:14;19.10;99.90
56044;DHT22;41912;51.022;3.664;2023-10-08T10:09:45;19.20;99.90
56044;DHT22;41912;51.022;3.664;2023-10-08T10:12:20;19.30;99.90
56044;DHT22;41912;51.022;3.664;2023-10-08T10:14:55;19.30;99.90
56044;DHT22;41912;51.022;3.664;2023-10-08T10:17:23;19.40;99.90
56044;DHT22;41912;51.022;3.664;2023-10-08T10:20:01;19.40;99.90
56044;DHT22;41912;51.022;3.664;2023-10-08T10:22:34;19.60;99.90
56044;DHT22;41912;51.022;3.664;2023-10-08T10:25:01;19.60;99.90
56044;DHT22;41912;51.022;3.664;2023-10-08T10:27:36;19.70;99.90
56044;DHT22;41912;51.022;3.664;2023-10-08T10:30:03;19.70;99.90
56044;DHT22;41912;51.022;3.664;2023-10-08T10:32:36;19.80;99.90
56044;DHT22;41912;51.022;3.664;2023-10-08T10:35:03;19.80;99.90
56044;DHT22;41912;51.022;3.664;2023-10-08T10:37:32;19.90;99.90
56044;DHT22;41912;51.022;3.664;2023-10-08T10:40:07;20.00;99.90
56044;DHT22;41912;51.022;3.664;2023-10-08T10:42:36;20.10;99.90
56044;DHT22;41912;51.022;3.664;2023-10-08T10:45:13;20.20;99.90
56044;DHT22;41912;51.022;3.664;2023-10-08T10:47:59;20.30;99.90
56044;DHT22;41912;51.022;3.664;2023-10-08T10:50:37;20.40;99.90
56044;DHT22;41912;51.022;3.664;2023-10-08T10:53:13;20.40;99.90
56044;DHT22;41912;51.022;3.664;2023-10-08T10:55:40;20.50;99.90
56044;DHT22;41912;51.022;3.664;2023-10-08T10:58:13;20.60;99.90
56044;DHT22;41912;51.022;3.664;2023-10-08T11:00:44;20.70;99.90
56044;DHT22;41912;51.022;3.664;2023-10-08T11:03:10;20.80;99.90
56044;DHT22;41912;51.022;3.664;2023-10-08T11:05:43;20.80;99.90
56044;DHT22;41912;51.022;3.664;2023-10-08T11:08:15;20.80;99.90
56044;DHT22;41912;51.022;3.664;2023-10-08T11:10:43;20.90;99.90
56044;DHT22;41912;51.022;3.664;2023-10-08T11:13:15;21.00;99.90
56044;DHT22;41912;51.022;3.664;2023-10-08T11:15:42;21.10;99.90
56044;DHT22;41912;51.022;3.664;2023-10-08T11:18:09;21.20;99.90
56044;DHT22;41912;51.022;3.664;2023-10-08T11:20:35;21.20;99.90
56044;DHT22;41912;51.022;3.664;2023-10-08T11:23:10;21.30;99.90
56044;DHT22;41912;51.022;3.664;2023-10-08T11:25:54;21.40;99.90
56044;DHT22;41912;51.022;3.664;2023-10-08T11:28:20;21.40;99.90
56044;DHT22;41912;51.022;3.664;2023-10-08T11:30:47;21.50;99.90
56044;DHT22;41912;51.022;3.664;2023-10-08T11:33:17;21.50;99.90
56044;DHT22;41912;51.022;3.664;2023-10-08T11:36:05;21.50;99.90
56044;DHT22;41912;51.022;3.664;2023-10-08T11:38:53;21.60;99.90
56044;DHT22;41912;51.022;3.664;2023-10-08T11:41:26;21.60;99.90
56044;DHT22;41912;51.022;3.664;2023-10-08T11:43:57;21.60;99.90
56044;DHT22;41912;51.022;3.664;2023-10-08T11:46:28;21.70;99.90
56044;DHT22;41912;51.022;3.664;2023-10-08T11:49:09;21.80;99.90
56044;DHT22;41912;51.022;3.664;2023-10-08T11:51:44;21.80;99.90
56044;DHT22;41912;51.022;3.664;2023-10-08T11:54:09;21.80;99.90
56044;DHT22;41912;51.022;3.664;2023-10-08T11:56:38;21.80;99.90
56044;DHT22;41912;51.022;3.664;2023-10-08T11:59:04;21.90;99.90
56044;DHT22;41912;51.022;3.664;2023-10-08T12:01:38;21.90;99.90
56044;DHT22;41912;51.022;3.664;2023-10-08T12:04:08;22.00;99.90
56044;DHT22;41912;51.022;3.664;2023-10-08T12:06:39;22.00;99.90
56044;DHT22;41912;51.022;3.664;2023-10-08T12:09:09;22.00;99.90
56044;DHT22;41912;51.022;3.664;2023-10-08T12:11:38;22.00;99.90
56044;DHT22;41912;51.022;3.664;2023-10-08T12:14:05;22.10;99.90
56044;DHT22;41912;51.022;3.664;2023-10-08T12:16:31;22.10;99.90
56044;DHT22;41912;51.022;3.664;2023-10-08T12:19:01;22.10;99.90
56044;DHT22;41912;51.022;3.664;2023-10-08T12:21:30;22.20;99.90
56044;DHT22;41912;51.022;3.664;2023-10-08T12:23:59;22.20;99.90
56044;DHT22;41912;51.022;3.664;2023-10-08T12:26:25;22.30;99.90
56044;DHT22;41912;51.022;3.664;2023-10-08T12:28:51;22.30;99.90
56044;DHT22;41912;51.022;3.664;2023-10-08T12:31:20;22.30;99.90
56044;DHT22;41912;51.022;3.664;2023-10-08T12:33:53;22.40;99.90
56044;DHT22;41912;51.022;3.664;2023-10-08T12:36:26;22.40;99.90
56044;DHT22;41912;51.022;3.664;2023-10-08T12:38:52;22.40;99.90
56044;DHT22;41912;51.022;3.664;2023-10-08T12:41:34;22.50;99.90
56044;DHT22;41912;51.022;3.664;2023-10-08T12:44:04;22.50;99.90
56044;DHT22;41912;51.022;3.664;2023-10-08T12:46:33;22.60;99.90
56044;DHT22;41912;51.022;3.664;2023-10-08T12:48:59;22.60;99.90
56044;DHT22;41912;51.022;3.664;2023-10-08T12:51:27;22.60;99.90
56044;DHT22;41912;51.022;3.664;2023-10-08T12:53:57;22.70;99.90
56044;DHT22;41912;51.022;3.664;2023-10-08T12:56:32;22.70;99.90
56044;DHT22;41912;51.022;3.664;2023-10-08T12:59:02;22.70;99.90
56044;DHT22;41912;51.022;3.664;2023-10-08T13:01:35;22.70;99.90
56044;DHT22;41912;51.022;3.664;2023-10-08T13:04:02;22.80;99.90
56044;DHT22;41912;51.022;3.664;2023-10-08T13:06:33;22.80;99.90
56044;DHT22;41912;51.022;3.664;2023-10-08T13:09:02;22.90;99.90
56044;DHT22;41912;51.022;3.664;2023-10-08T13:11:34;22.80;99.90
56044;DHT22;41912;51.022;3.664;2023-10-08T13:14:00;22.90;99.90
56044;DHT22;41912;51.022;3.664;2023-10-08T13:16:27;22.90;99.90
56044;DHT22;41912;51.022;3.664;2023-10-08T13:19:03;23.00;99.90
56044;DHT22;41912;51.022;3.664;2023-10-08T13:21:29;23.00;99.90
56044;DHT22;41912;51.022;3.664;2023-10-08T13:23:57;23.00;99.90
56044;DHT22;41912;51.022;3.664;2023-10-08T13:26:26;23.10;99.90
56044;DHT22;41912;51.022;3.664;2023-10-08T13:28:57;23.10;99.90
56044;DHT22;41912;51.022;3.664;2023-10-08T13:31:23;23.20;99.90
56044;DHT22;41912;51.022;3.664;2023-10-08T13:33:50;23.20;99.90
56044;DHT22;41912;51.022;3.664;2023-10-08T13:36:18;23.20;99.90
56044;DHT22;41912;51.022;3.664;2023-10-08T13:38:44;23.30;99.90
56044;DHT22;41912;51.022;3.664;2023-10-08T13:41:12;23.40;99.90
56044;DHT22;41912;51.022;3.664;2023-10-08T13:43:41;23.40;99.90
56044;DHT22;41912;51.022;3.664;2023-10-08T13:46:11;23.50;99.90
56044;DHT22;41912;51.022;3.664;2023-10-08T13:48:42;23.60;99.90
56044;DHT22;41912;51.022;3.664;2023-10-08T13:51:11;23.60;99.90
56044;DHT22;41912;51.022;3.664;2023-10-08T13:53:48;23.70;99.90
56044;DHT22;41912;51.022;3.664;2023-10-08T13:56:18;23.70;99.90
56044;DHT22;41912;51.022;3.664;2023-10-08T13:58:46;23.80;99.90
56044;DHT22;41912;51.022;3.664;2023-10-08T14:01:15;23.80;99.90
56044;DHT22;41912;51.022;3.664;2023-10-08T14:03:50;23.90;99.90
56044;DHT22;41912;51.022;3.664;2023-10-08T14:06:20;23.90;99.50
56044;DHT22;41912;51.022;3.664;2023-10-08T14:08:46;24.00;99.30
56044;DHT22;41912;51.022;3.664;2023-10-08T14:11:21;24.00;99.40
56044;DHT22;41912;51.022;3.664;2023-10-08T14:13:53;24.10;99.90
56044;DHT22;41912;51.022;3.664;2023-10-08T14:16:19;24.10;99.90
56044;DHT22;41912;51.022;3.664;2023-10-08T14:18:50;24.20;99.90
56044;DHT22;41912;51.022;3.664;2023-10-08T14:21:19;24.20;99.90
56044;DHT22;41912;51.022;3.664;2023-10-08T14:23:50;24.20;99.90
56044;DHT22;41912;51.022;3.664;2023-10-08T14:26:18;24.20;99.90
56044;DHT22;41912;51.022;3.664;2023-10-08T14:28:48;24.00;99.90
56044;DHT22;41912;51.022;3.664;2023-10-08T14:31:22;24.20;99.90
56044;DHT22;41912;51.022;3.664;2023-10-08T14:33:50;24.20;99.90
56044;DHT22;41912;51.022;3.664;2023-10-08T14:36:33;24.20;99.90
56044;DHT22;41912;51.022;3.664;2023-10-08T14:39:18;24.20;99.90
56044;DHT22;41912;51.022;3.664;2023-10-08T14:42:03;24.20;99.90
56044;DHT22;41912;51.022;3.664;2023-10-08T14:44:48;24.10;99.90
56044;DHT22;41912;51.022;3.664;2023-10-08T14:47:16;24.10;99.90
56044;DHT22;41912;51.022;3.664;2023-10-08T14:49:42;24.10;99.90
56044;DHT22;41912;51.022;3.664;2023-10-08T14:52:09;24.10;99.90
56044;DHT22;41912;51.022;3.664;2023-10-08T14:54:34;24.10;99.90
56044;DHT22;41912;51.022;3.664;2023-10-08T14:57:00;24.10;99.90
56044;DHT22;41912;51.022;3.664;2023-10-08T14:59:28;24.10;99.90
56044;DHT22;41912;51.022;3.664;2023-10-08T15:01:54;24.00;99.90
56044;DHT22;41912;51.022;3.664;2023-10-08T15:04:21;24.00;99.90
56044;DHT22;41912;51.022;3.664;2023-10-08T15:06:47;24.00;99.90
56044;DHT22;41912;51.022;3.664;2023-10-08T15:09:14;23.90;99.90
56044;DHT22;41912;51.022;3.664;2023-10-08T15:11:50;23.90;99.90
56044;DHT22;41912;51.022;3.664;2023-10-08T15:14:20;23.90;99.90
56044;DHT22;41912;51.022;3.664;2023-10-08T15:16:46;23.90;99.90
56044;DHT22;41912;51.022;3.664;2023-10-08T15:19:18;23.90;99.90
56044;DHT22;41912;51.022;3.664;2023-10-08T15:21:44;23.90;99.90
56044;DHT22;41912;51.022;3.664;2023-10-08T15:24:09;23.90;99.90
56044;DHT22;41912;51.022;3.664;2023-10-08T15:26:40;23.80;99.90
56044;DHT22;41912;51.022;3.664;2023-10-08T15:29:05;23.80;99.90
56044;DHT22;41912;51.022;3.664;2023-10-08T15:31:31;23.80;99.90
56044;DHT22;41912;51.022;3.664;2023-10-08T15:33:56;23.80;99.90
56044;DHT22;41912;51.022;3.664;2023-10-08T15:36:22;23.80;99.90
56044;DHT22;41912;51.022;3.664;2023-10-08T15:38:48;23.70;99.90
56044;DHT22;41912;51.022;3.664;2023-10-08T15:41:14;23.70;99.90
56044;DHT22;41912;51.022;3.664;2023-10-08T15:43:41;23.70;99.90
56044;DHT22;41912;51.022;3.664;2023-10-08T15:46:10;23.60;99.90
56044;DHT22;41912;51.022;3.664;2023-10-08T15:48:36;23.60;99.90
56044;DHT22;41912;51.022;3.664;2023-10-08T15:51:03;23.60;99.90
56044;DHT22;41912;51.022;3.664;2023-10-08T15:53:28;23.50;99.90